createdAt,value
2022-08-31T00:00:10.268Z,98770.91
2022-08-31T00:02:57.111Z,98777.53
2022-08-31T00:05:23.619Z,98774.13
2022-08-31T00:07:51.666Z,98778.47
2022-08-31T00:10:31.972Z,98772.84
2022-08-31T00:13:03.814Z,98777.34
2022-08-31T00:15:30.667Z,98776.72
2022-08-31T00:17:58.231Z,98776.31
2022-08-31T00:20:33.989Z,98782.88
2022-08-31T00:23:03.316Z,98776.34
2022-08-31T00:25:30.103Z,98781.78
2022-08-31T00:27:56.673Z,98770.81
2022-08-31T00:30:23.436Z,98778.81
2022-08-31T00:32:50.278Z,98779.81
2022-08-31T00:35:16.924Z,98783.16
2022-08-31T00:37:43.672Z,98789.19
2022-08-31T00:40:11.381Z,98782.31
2022-08-31T00:42:38.181Z,98779.94
2022-08-31T00:45:06.835Z,98773.94
2022-08-31T00:47:33.400Z,98780.09
2022-08-31T00:50:00.923Z,98780.94
2022-08-31T00:52:37.510Z,98774.78
2022-08-31T00:55:21.036Z,98774.06
2022-08-31T00:57:54.483Z,98779.50
2022-08-31T01:00:26.326Z,98780.09
2022-08-31T01:02:54.852Z,98781.22
2022-08-31T01:05:21.558Z,98778.63
2022-08-31T01:07:50.502Z,98785.94
2022-08-31T01:10:21.934Z,98778.22
2022-08-31T01:12:54.482Z,98781.03
2022-08-31T01:15:21.980Z,98780.22
2022-08-31T01:17:52.399Z,98779.22
2022-08-31T01:20:56.588Z,98785.25
2022-08-31T01:23:27.675Z,98788.66
2022-08-31T01:25:58.264Z,98790.63
2022-08-31T01:28:25.901Z,98790.91
2022-08-31T01:31:35.210Z,98791.81
2022-08-31T01:34:03.840Z,98785.94
2022-08-31T01:36:32.558Z,98797.81
2022-08-31T01:38:59.082Z,98801.88
2022-08-31T01:41:25.593Z,98797.09
2022-08-31T01:43:53.022Z,98800.84
2022-08-31T01:46:19.827Z,98800.41
2022-08-31T01:48:48.105Z,98810.78
2022-08-31T01:51:19.370Z,98808.56
2022-08-31T01:53:48.794Z,98820.06
2022-08-31T01:56:24.795Z,98811.34
2022-08-31T01:58:51.756Z,98824.53
2022-08-31T02:01:32.583Z,98844.56
2022-08-31T02:04:00.431Z,98853.66
2022-08-31T02:06:27.017Z,98857.00
2022-08-31T02:08:53.700Z,98862.16
2022-08-31T02:11:20.281Z,98852.66
2022-08-31T02:13:46.775Z,98859.66
2022-08-31T02:16:13.643Z,98868.06
2022-08-31T02:18:40.294Z,98881.94
2022-08-31T02:21:07.446Z,98880.97
2022-08-31T02:23:34.578Z,98875.22
2022-08-31T02:26:01.413Z,98884.22
2022-08-31T02:28:27.923Z,98885.38
2022-08-31T02:30:54.476Z,98894.41
2022-08-31T02:33:21.054Z,98893.06
2022-08-31T02:35:50.298Z,98890.56
2022-08-31T02:38:22.871Z,98894.19
2022-08-31T02:40:51.549Z,98896.44
2022-08-31T02:43:24.426Z,98897.13
2022-08-31T02:45:55.724Z,98894.44
2022-08-31T02:48:22.474Z,98895.84
2022-08-31T02:50:52.238Z,98893.16
2022-08-31T02:53:22.910Z,98891.31
2022-08-31T02:55:50.115Z,98888.91
2022-08-31T02:58:20.716Z,98884.44
2022-08-31T03:00:50.127Z,98889.63
2022-08-31T03:03:17.724Z,98888.78
2022-08-31T03:05:44.627Z,98887.81
2022-08-31T03:08:11.148Z,98890.91
2022-08-31T03:10:37.679Z,98885.59
2022-08-31T03:13:04.386Z,98885.16
2022-08-31T03:15:31.541Z,98882.06
2022-08-31T03:17:58.152Z,98882.75
2022-08-31T03:20:27.201Z,98877.44
2022-08-31T03:22:54.806Z,98873.63
2022-08-31T03:25:22.233Z,98873.38
2022-08-31T03:27:49.054Z,98870.59
2022-08-31T03:30:19.609Z,98868.78
2022-08-31T03:32:48.347Z,98865.00
2022-08-31T03:35:15.814Z,98867.22
2022-08-31T03:37:42.375Z,98861.59
2022-08-31T03:40:10.182Z,98867.72
2022-08-31T03:42:37.032Z,98860.00
2022-08-31T03:45:04.866Z,98862.94
2022-08-31T03:47:31.390Z,98854.81
2022-08-31T03:49:58.623Z,98857.03
2022-08-31T03:52:25.534Z,98858.19
2022-08-31T03:54:52.052Z,98868.66
2022-08-31T03:57:18.568Z,98860.53
2022-08-31T03:59:45.080Z,98861.94
2022-08-31T04:02:11.601Z,98860.38
2022-08-31T04:04:38.168Z,98850.72
2022-08-31T04:07:04.767Z,98856.16
2022-08-31T04:09:31.317Z,98858.56
2022-08-31T04:11:57.821Z,98852.84
2022-08-31T04:14:24.306Z,98856.53
2022-08-31T04:16:50.899Z,98865.91
2022-08-31T04:19:17.480Z,98862.94
2022-08-31T04:21:44.550Z,98859.28
2022-08-31T04:24:11.958Z,98864.53
2022-08-31T04:26:40.853Z,98861.00
2022-08-31T04:29:12.854Z,98858.59
2022-08-31T04:31:40.489Z,98855.25
2022-08-31T04:34:08.151Z,98857.22
2022-08-31T04:36:35.513Z,98854.03
2022-08-31T04:39:04.311Z,98852.34
2022-08-31T04:41:35.058Z,98849.63
2022-08-31T04:44:03.771Z,98854.66
2022-08-31T04:46:32.752Z,98857.44
2022-08-31T04:48:59.583Z,98857.44
2022-08-31T04:51:31.842Z,98855.50
2022-08-31T04:53:58.829Z,98859.56
2022-08-31T04:56:29.483Z,98854.13
2022-08-31T04:59:06.229Z,98863.47
2022-08-31T05:01:43.433Z,98865.81
2022-08-31T05:04:14.076Z,98867.44
2022-08-31T05:06:44.588Z,98863.13
2022-08-31T05:09:20.031Z,98865.94
2022-08-31T05:11:47.224Z,98861.34
2022-08-31T05:14:14.311Z,98859.34
2022-08-31T05:16:42.676Z,98864.53
2022-08-31T05:19:09.623Z,98868.72
2022-08-31T05:21:40.617Z,98866.91
2022-08-31T05:24:22.433Z,98871.66
2022-08-31T05:26:53.653Z,98878.75
2022-08-31T05:29:25.093Z,98864.06
2022-08-31T05:31:52.788Z,98865.78
2022-08-31T05:34:21.725Z,98861.28
2022-08-31T05:36:55.498Z,98875.75
2022-08-31T05:39:22.070Z,98872.22
2022-08-31T05:41:49.005Z,98869.44
2022-08-31T05:44:17.403Z,98871.69
2022-08-31T05:46:44.180Z,98864.72
2022-08-31T05:49:11.663Z,98865.28
2022-08-31T05:51:39.681Z,98858.16
2022-08-31T05:54:07.886Z,98860.81
2022-08-31T05:56:35.599Z,98867.81
2022-08-31T05:59:02.411Z,98868.13
2022-08-31T06:01:38.721Z,98851.38
2022-08-31T06:04:07.714Z,98869.56
2022-08-31T06:06:34.793Z,98862.00
2022-08-31T06:09:01.397Z,98867.88
2022-08-31T06:11:30.968Z,98864.75
2022-08-31T06:14:01.923Z,98868.09
2022-08-31T06:16:30.359Z,98862.25
2022-08-31T06:18:58.278Z,98866.84
2022-08-31T06:21:33.693Z,98868.97
2022-08-31T06:24:03.320Z,98873.16
2022-08-31T06:26:33.972Z,98879.06
2022-08-31T06:29:05.513Z,98873.63
2022-08-31T06:31:38.582Z,98875.63
2022-08-31T06:34:07.086Z,98875.09
2022-08-31T06:36:35.112Z,98877.91
2022-08-31T06:39:02.335Z,98876.75
2022-08-31T06:41:36.768Z,98876.50
2022-08-31T06:44:08.598Z,98877.47
2022-08-31T06:46:37.543Z,98875.91
2022-08-31T06:49:05.979Z,98875.94
2022-08-31T06:51:37.814Z,98882.69
2022-08-31T06:54:28.668Z,98881.16
2022-08-31T06:56:59.646Z,98888.03
2022-08-31T06:59:29.214Z,98884.41
2022-08-31T07:02:00.208Z,98882.00
2022-08-31T07:04:27.806Z,98896.34
2022-08-31T07:06:54.472Z,98894.63
2022-08-31T07:09:20.989Z,98893.66
2022-08-31T07:11:52.013Z,98890.56
2022-08-31T07:14:23.577Z,98888.31
2022-08-31T07:16:56.499Z,98896.16
2022-08-31T07:19:24.110Z,98899.50
2022-08-31T07:22:00.309Z,98897.84
2022-08-31T07:24:31.367Z,98895.31
2022-08-31T07:27:02.899Z,98908.50
2022-08-31T07:29:37.529Z,98907.09
2022-08-31T07:32:04.124Z,98907.09
2022-08-31T07:34:33.459Z,98908.50
2022-08-31T07:37:19.649Z,98911.56
2022-08-31T07:40:07.789Z,98912.13
2022-08-31T07:42:43.617Z,98910.56
2022-08-31T07:47:55.114Z,98913.19
2022-08-31T07:50:23.453Z,98913.56
2022-08-31T07:52:54.756Z,98913.09
2022-08-31T07:55:24.630Z,98920.34
2022-08-31T07:57:54.764Z,98918.44
2022-08-31T08:00:26.450Z,98918.75
2022-08-31T08:02:54.459Z,98924.63
2022-08-31T08:05:27.480Z,98927.72
2022-08-31T08:08:03.650Z,98916.03
2022-08-31T08:10:31.649Z,98936.50
2022-08-31T08:13:04.836Z,98923.84
2022-08-31T08:15:35.444Z,98932.69
2022-08-31T08:18:04.518Z,98924.22
2022-08-31T08:20:37.410Z,98940.25
2022-08-31T08:23:14.540Z,98934.03
2022-08-31T08:25:43.671Z,98938.69
2022-08-31T08:28:38.169Z,98927.66
2022-08-31T08:31:07.087Z,98928.19
2022-08-31T08:33:35.596Z,98927.59
2022-08-31T08:36:07.627Z,98938.94
2022-08-31T08:38:38.990Z,98940.25
2022-08-31T08:41:12.978Z,98936.28
2022-08-31T08:43:50.072Z,98940.31
2022-08-31T08:46:35.650Z,98938.75
2022-08-31T08:49:28.356Z,98941.09
2022-08-31T08:52:11.666Z,98940.34
2022-08-31T08:54:46.601Z,98938.69
2022-08-31T08:57:20.904Z,98939.06
2022-08-31T08:59:49.375Z,98934.31
2022-08-31T09:02:23.146Z,98932.16
2022-08-31T09:05:12.023Z,98940.41
2022-08-31T09:07:50.906Z,98939.22
2022-08-31T09:10:42.242Z,98933.22
2022-08-31T09:13:30.139Z,98940.25
2022-08-31T09:16:21.898Z,98931.63
2022-08-31T09:19:08.394Z,98932.50
2022-08-31T09:21:42.328Z,98932.28
2022-08-31T09:24:21.593Z,98935.41
2022-08-31T09:26:58.495Z,98927.25
2022-08-31T09:29:31.264Z,98931.94
2022-08-31T09:32:09.054Z,98940.34
2022-08-31T09:34:41.229Z,98943.06
2022-08-31T09:37:28.810Z,98943.75
2022-08-31T09:39:56.423Z,98941.09
2022-08-31T09:42:32.246Z,98938.13
2022-08-31T09:45:15.626Z,98941.84
2022-08-31T09:47:52.252Z,98941.41
2022-08-31T09:50:31.461Z,98945.06
2022-08-31T09:53:44.924Z,98943.41
2022-08-31T09:56:19.762Z,98950.47
2022-08-31T09:58:50.288Z,98951.44
2022-08-31T10:01:37.874Z,98953.31
2022-08-31T10:04:27.970Z,98941.94
2022-08-31T10:07:29.952Z,98948.50
2022-08-31T10:10:31.037Z,98943.66
2022-08-31T10:13:22.867Z,98946.53
2022-08-31T10:16:02.169Z,98944.34
2022-08-31T10:18:55.969Z,98948.38
2022-08-31T10:21:39.540Z,98945.31
2022-08-31T10:24:33.293Z,98950.16
2022-08-31T10:27:31.363Z,98949.53
2022-08-31T10:30:05.620Z,98948.72
2022-08-31T10:33:08.454Z,98941.19
2022-08-31T10:35:54.952Z,98940.00
2022-08-31T10:38:34.465Z,98940.19
2022-08-31T10:41:16.250Z,98949.72
2022-08-31T10:44:26.382Z,98951.94
2022-08-31T10:47:02.584Z,98941.34
2022-08-31T10:49:29.771Z,98949.91
2022-08-31T10:52:17.168Z,98946.06
2022-08-31T10:55:06.654Z,98940.84
2022-08-31T10:57:56.266Z,98953.75
2022-08-31T11:00:47.460Z,98950.06
2022-08-31T11:03:48.960Z,98950.91
2022-08-31T11:07:06.636Z,98949.25
2022-08-31T11:09:54.940Z,98955.75
2022-08-31T11:12:33.274Z,98961.09
2022-08-31T11:15:44.120Z,98953.03
2022-08-31T11:18:50.573Z,98962.06
2022-08-31T11:22:14.106Z,98953.00
2022-08-31T11:25:07.467Z,98960.66
2022-08-31T11:27:55.143Z,98958.84
2022-08-31T11:30:32.662Z,98954.34
2022-08-31T11:33:06.866Z,98957.69
2022-08-31T11:36:06.057Z,98956.00
2022-08-31T11:38:54.710Z,98958.41
2022-08-31T11:41:47.708Z,98956.94
2022-08-31T11:44:33.281Z,98949.06
2022-08-31T11:47:29.215Z,98951.91
2022-08-31T11:50:02.310Z,98953.13
2022-08-31T11:52:40.962Z,98949.91
2022-08-31T11:55:28.587Z,98938.34
2022-08-31T11:58:07.523Z,98940.19
2022-08-31T12:00:58.817Z,98939.34
2022-08-31T12:04:03.179Z,98949.38
2022-08-31T12:06:32.081Z,98945.91
2022-08-31T12:09:36.638Z,98955.19
2022-08-31T12:12:32.371Z,98938.69
2022-08-31T12:15:37.718Z,98939.91
2022-08-31T12:18:38.447Z,98933.28
2022-08-31T12:21:59.537Z,98934.78
2022-08-31T12:25:02.226Z,98926.38
2022-08-31T12:27:40.660Z,98920.94
2022-08-31T12:30:36.598Z,98922.97
2022-08-31T12:33:17.957Z,98916.81
2022-08-31T12:35:49.220Z,98920.03
2022-08-31T12:38:23.211Z,98915.94
2022-08-31T12:40:57.870Z,98922.66
2022-08-31T12:43:39.606Z,98919.88
2022-08-31T12:46:33.439Z,98914.75
2022-08-31T12:49:51.410Z,98906.00
2022-08-31T12:52:39.424Z,98911.66
2022-08-31T12:55:12.602Z,98902.19
2022-08-31T12:57:50.645Z,98900.75
2022-08-31T13:00:38.728Z,98897.34
2022-08-31T13:03:28.956Z,98897.47
2022-08-31T13:06:13.518Z,98894.38
2022-08-31T13:08:50.255Z,98895.59
2022-08-31T13:11:41.443Z,98887.13
2022-08-31T13:14:13.024Z,98888.97
2022-08-31T13:16:50.074Z,98883.50
2022-08-31T13:19:30.226Z,98896.63
2022-08-31T13:22:06.683Z,98889.09
2022-08-31T13:24:41.283Z,98882.91
2022-08-31T13:27:20.927Z,98883.75
2022-08-31T13:29:50.884Z,98869.69
2022-08-31T13:32:32.197Z,98874.94
2022-08-31T13:35:13.993Z,98881.69
2022-08-31T13:38:05.481Z,98859.69
2022-08-31T13:40:39.901Z,98855.69
2022-08-31T13:43:10.582Z,98860.31
2022-08-31T13:45:58.090Z,98859.66
2022-08-31T13:48:40.558Z,98857.31
2022-08-31T13:51:18.273Z,98848.22
2022-08-31T13:54:07.807Z,98847.91
2022-08-31T13:56:55.460Z,98848.06
2022-08-31T13:59:24.782Z,98848.59
2022-08-31T14:01:57.776Z,98839.63
2022-08-31T14:05:00.259Z,98849.38
2022-08-31T14:07:39.367Z,98841.75
2022-08-31T14:10:28.283Z,98847.94
2022-08-31T14:13:27.711Z,98847.91
2022-08-31T14:16:02.016Z,98853.00
2022-08-31T14:18:43.053Z,98847.31
2022-08-31T14:21:21.148Z,98846.69
2022-08-31T14:23:54.403Z,98848.22
2022-08-31T14:26:26.236Z,98843.59
2022-08-31T14:28:56.742Z,98844.19
2022-08-31T14:31:49.132Z,98836.41
2022-08-31T14:34:24.412Z,98828.53
2022-08-31T14:36:57.712Z,98829.22
2022-08-31T14:39:30.757Z,98824.16
2022-08-31T14:42:16.974Z,98819.75
2022-08-31T14:44:53.506Z,98810.13
2022-08-31T14:47:27.634Z,98811.09
2022-08-31T14:50:01.524Z,98804.28
2022-08-31T14:52:28.356Z,98800.03
2022-08-31T14:55:00.448Z,98805.41
2022-08-31T14:57:27.435Z,98799.94
2022-08-31T14:59:59.584Z,98808.78
2022-08-31T15:02:31.560Z,98806.66
2022-08-31T15:05:06.490Z,98802.31
2022-08-31T15:07:37.616Z,98803.88
2022-08-31T15:10:07.610Z,98809.69
2022-08-31T15:12:35.331Z,98807.75
2022-08-31T15:15:02.146Z,98806.97
2022-08-31T15:17:33.696Z,98807.13
2022-08-31T15:20:03.336Z,98818.69
2022-08-31T15:22:31.823Z,98809.66
2022-08-31T15:24:59.009Z,98810.66
2022-08-31T15:27:28.600Z,98798.72
2022-08-31T15:30:02.408Z,98802.91
2022-08-31T15:32:28.976Z,98802.84
2022-08-31T15:34:58.625Z,98797.94
2022-08-31T15:37:30.777Z,98796.03
2022-08-31T15:40:02.073Z,98789.75
2022-08-31T15:42:31.314Z,98792.25
2022-08-31T15:44:58.124Z,98790.72
2022-08-31T15:47:47.886Z,98788.94
2022-08-31T15:50:19.105Z,98792.66
2022-08-31T15:52:50.988Z,98789.78
2022-08-31T15:55:26.260Z,98797.47
2022-08-31T15:57:58.807Z,98797.94
2022-08-31T16:00:36.645Z,98802.47
2022-08-31T16:03:03.820Z,98797.16
2022-08-31T16:05:35.477Z,98796.63
2022-08-31T16:08:02.620Z,98788.56
2022-08-31T16:10:30.946Z,98786.50
2022-08-31T16:12:58.020Z,98791.59
2022-08-31T16:15:25.225Z,98790.78
2022-08-31T16:17:57.042Z,98784.44
2022-08-31T16:20:23.547Z,98789.69
2022-08-31T16:22:50.066Z,98786.34
2022-08-31T16:25:17.559Z,98789.69
2022-08-31T16:27:47.155Z,98790.41
2022-08-31T16:30:15.856Z,98780.31
2022-08-31T16:32:42.517Z,98785.88
2022-08-31T16:35:09.764Z,98780.50
2022-08-31T16:37:36.449Z,98788.56
2022-08-31T16:40:04.318Z,98781.34
2022-08-31T16:42:30.882Z,98788.09
2022-08-31T16:45:01.807Z,98790.84
2022-08-31T16:47:29.110Z,98795.75
2022-08-31T16:49:55.826Z,98790.91
2022-08-31T16:52:27.080Z,98796.03
2022-08-31T16:54:57.039Z,98801.81
2022-08-31T16:57:28.880Z,98803.91
2022-08-31T16:59:57.327Z,98798.53
2022-08-31T17:02:25.138Z,98809.81
2022-08-31T17:04:54.295Z,98806.13
2022-08-31T17:07:24.509Z,98806.84
2022-08-31T17:09:56.429Z,98809.22
2022-08-31T17:12:27.159Z,98804.91
2022-08-31T17:14:53.964Z,98809.16
2022-08-31T17:17:25.175Z,98812.06
2022-08-31T17:19:55.776Z,98812.06
2022-08-31T17:22:31.685Z,98807.56
2022-08-31T17:25:04.568Z,98814.47
2022-08-31T17:27:34.590Z,98814.31
2022-08-31T17:30:05.638Z,98813.50
2022-08-31T17:32:32.549Z,98811.34
2022-08-31T17:34:59.837Z,98813.34
2022-08-31T17:37:32.640Z,98814.38
2022-08-31T17:40:00.222Z,98823.91
2022-08-31T17:42:27.915Z,98826.56
2022-08-31T17:44:56.678Z,98818.19
2022-08-31T17:47:25.907Z,98827.06
2022-08-31T17:49:52.941Z,98834.03
2022-08-31T17:52:21.340Z,98834.03
2022-08-31T17:54:50.407Z,98834.97
2022-08-31T17:57:24.805Z,98836.94
2022-08-31T17:59:52.861Z,98839.91
2022-08-31T18:02:34.398Z,98845.22
2022-08-31T18:05:02.323Z,98854.22
2022-08-31T18:07:29.218Z,98847.88
2022-08-31T18:09:56.576Z,98852.00
2022-08-31T18:12:25.379Z,98853.50
2022-08-31T18:14:58.057Z,98859.16
2022-08-31T18:17:26.393Z,98861.09
2022-08-31T18:19:54.566Z,98859.72
2022-08-31T18:22:21.580Z,98872.91
2022-08-31T18:24:48.144Z,98869.38
2022-08-31T18:27:15.346Z,98873.34
2022-08-31T18:29:44.033Z,98877.69
2022-08-31T18:32:11.375Z,98880.38
2022-08-31T18:34:46.899Z,98886.97
2022-08-31T18:37:15.717Z,98883.88
2022-08-31T18:40:04.185Z,98891.66
2022-08-31T18:42:51.673Z,98892.25
2022-08-31T18:45:19.384Z,98897.53
2022-08-31T18:48:20.777Z,98897.97
2022-08-31T18:50:44.091Z,98902.41
2022-08-31T18:53:15.130Z,98900.50
2022-08-31T18:55:45.672Z,98908.38
2022-08-31T18:58:12.636Z,98914.84
2022-08-31T19:00:40.152Z,98908.28
2022-08-31T19:03:07.254Z,98906.19
2022-08-31T19:05:39.890Z,98907.50
2022-08-31T19:08:06.875Z,98906.28
2022-08-31T19:10:34.695Z,98910.97
2022-08-31T19:13:05.407Z,98911.03
2022-08-31T19:15:39.803Z,98911.78
2022-08-31T19:18:07.383Z,98921.91
2022-08-31T19:20:35.412Z,98915.75
2022-08-31T19:23:02.323Z,98919.53
2022-08-31T19:25:29.155Z,98919.13
2022-08-31T19:27:55.992Z,98910.31
2022-08-31T19:30:27.887Z,98917.03
2022-08-31T19:32:56.218Z,98915.38
2022-08-31T19:35:25.821Z,98917.78
2022-08-31T19:37:53.622Z,98916.94
2022-08-31T19:40:20.279Z,98917.91
2022-08-31T19:43:42.913Z,98922.97
2022-08-31T19:45:43.595Z,98920.28
2022-08-31T19:48:12.131Z,98922.38
2022-08-31T19:50:41.970Z,98924.22
2022-08-31T19:53:11.622Z,98921.97
2022-08-31T19:55:50.011Z,98923.09
2022-08-31T19:58:22.398Z,98926.31
2022-08-31T20:00:49.827Z,98931.91
2022-08-31T20:03:19.094Z,98927.28
2022-08-31T20:05:46.766Z,98926.44
2022-08-31T20:08:13.319Z,98927.03
2022-08-31T20:10:45.944Z,98929.25
2022-08-31T20:13:13.208Z,98922.53
2022-08-31T20:15:45.008Z,98920.84
2022-08-31T20:18:12.461Z,98919.75
2022-08-31T20:20:45.848Z,98918.03
2022-08-31T20:23:16.259Z,98921.69
2022-08-31T20:25:45.583Z,98924.47
2022-08-31T20:28:13.834Z,98928.44
2022-08-31T20:30:43.273Z,98921.25
2022-08-31T20:33:11.695Z,98926.31
2022-08-31T20:35:47.192Z,98921.13
2022-08-31T20:38:18.350Z,98924.44
2022-08-31T20:40:48.134Z,98925.28
2022-08-31T20:43:15.060Z,98927.34
2022-08-31T20:45:42.368Z,98923.28
2022-08-31T20:48:28.984Z,98927.31
2022-08-31T20:50:57.234Z,98924.22
2022-08-31T20:53:42.491Z,98929.13
2022-08-31T20:56:17.505Z,98927.00
2022-08-31T20:58:46.441Z,98929.13
2022-08-31T21:01:14.051Z,98934.75
2022-08-31T21:03:41.449Z,98927.75
2022-08-31T21:06:11.493Z,98920.47
2022-08-31T21:08:40.820Z,98922.75
2022-08-31T21:11:17.697Z,98920.63
2022-08-31T21:13:46.448Z,98921.34
2022-08-31T21:16:14.976Z,98921.06
2022-08-31T21:18:41.725Z,98911.00
2022-08-31T21:21:17.399Z,98912.31
2022-08-31T21:23:46.800Z,98911.44
2022-08-31T21:26:26.576Z,98917.75
2022-08-31T21:28:56.613Z,98917.75
2022-08-31T21:31:28.978Z,98911.59
2022-08-31T21:34:00.549Z,98918.56
2022-08-31T21:36:29.651Z,98910.53
2022-08-31T21:38:59.607Z,98916.84
2022-08-31T21:41:28.732Z,98915.28
2022-08-31T21:43:57.571Z,98918.78
2022-08-31T21:46:28.821Z,98927.03
2022-08-31T21:48:59.019Z,98928.19
2022-08-31T21:51:37.293Z,98930.13
2022-08-31T21:54:08.920Z,98929.72
2022-08-31T21:56:44.050Z,98924.38
2022-08-31T21:59:14.008Z,98927.03
2022-08-31T22:01:41.648Z,98925.91
2022-08-31T22:04:10.169Z,98926.59
2022-08-31T22:06:38.148Z,98927.81
2022-08-31T22:09:15.716Z,98918.69
2022-08-31T22:11:46.470Z,98923.31
2022-08-31T22:14:17.679Z,98925.06
2022-08-31T22:16:46.774Z,98925.03
2022-08-31T22:19:18.412Z,98926.44
2022-08-31T22:21:49.351Z,98923.75
2022-08-31T22:24:27.365Z,98924.25
2022-08-31T22:26:57.879Z,98925.91
2022-08-31T22:29:29.090Z,98930.47
2022-08-31T22:32:01.643Z,98926.78
2022-08-31T22:34:28.938Z,98931.91
2022-08-31T22:36:56.572Z,98926.59
2022-08-31T22:39:29.672Z,98920.69
2022-08-31T22:41:58.780Z,98932.75
2022-08-31T22:44:32.261Z,98928.47
2022-08-31T22:46:59.116Z,98930.19
2022-08-31T22:49:26.982Z,98930.00
2022-08-31T22:51:54.711Z,98927.34
2022-08-31T22:54:23.367Z,98923.50
2022-08-31T22:56:52.003Z,98939.91
2022-08-31T22:59:27.250Z,98935.41
2022-08-31T23:02:03.201Z,98935.06
2022-08-31T23:04:34.205Z,98931.84
2022-08-31T23:07:03.466Z,98938.72
2022-08-31T23:09:31.072Z,98932.81
2022-08-31T23:12:00.899Z,98931.34
2022-08-31T23:14:29.251Z,98927.72
2022-08-31T23:16:59.731Z,98920.16
2022-08-31T23:19:54.155Z,98923.03
2022-08-31T23:22:24.450Z,98914.75
2022-08-31T23:24:51.709Z,98916.19
2022-08-31T23:27:21.624Z,98906.56
2022-08-31T23:29:56.434Z,98912.44
2022-08-31T23:32:27.741Z,98905.81
2022-08-31T23:34:57.256Z,98909.19
2022-08-31T23:37:26.237Z,98901.69
2022-08-31T23:39:54.629Z,98911.81
2022-08-31T23:42:24.395Z,98903.50
2022-08-31T23:44:52.151Z,98906.06
2022-08-31T23:47:26.591Z,98904.94
2022-08-31T23:49:53.627Z,98905.56
2022-08-31T23:52:27.490Z,98908.09
2022-08-31T23:54:59.216Z,98896.03
2022-08-31T23:57:32.164Z,98904.94
